Norge, Virginia
Current Conditions -  °F | °C
As of 12:55 AM on Thursday 23 Oct 2014 (Local Time) from KJGG Reporting Station
Clear Clear  
Wind Chill: 55°   Ceiling: Unl
Heat Index: 55°   Visibility: 10mi
Dew Point: 46°   Wind: 13mph
Humidity: 72%   Direction: 330°NNW
Pressure: 29.91"   Gusts: 16mph
Location:  37.37°N, 76.77°W
Report Text: KJGG 230455Z AUTO 33011G14KT 10SM CLR 13/08 A2991 RMK AO1
Loading
Personal Weather Stations






























Interactive Weather Map
Tropical Storm Tracking
New forecast layout! Learn more

10-Day Weather Forecast

Advertisements
Track Severe Weather on mobile